Time;durP1;ratioP1;P1;durP2;ratioP2;P2;SDS_P1;SDS_P2;PMS_P1;PMS_P2;Temp;Humidity;BMP_temperature;BMP_pressure;BME280_temperature;BME280_humidity;BME280_pressure;Samples;Min_cycle;Max_cycle;Signal;HPM_P1;HPM_P2
2022/06/02 00:01:08;;;;;;;2.75;1.10;;;;;;;;;;5146965;27;20233;-19
2022/06/02 00:03:37;;;;;;;1.60;0.90;;;;;;;;;;5152181;27;20310;-20
2022/06/02 00:06:08;;;;;;;4.72;1.40;;;;;;;;;;5152721;27;20246;-19
2022/06/02 00:08:39;;;;;;;4.88;1.08;;;;;;;;;;5152238;27;20245;-20
2022/06/02 00:11:10;;;;;;;2.42;1.00;;;;;;;;;;5152526;27;20223;-20
2022/06/02 00:13:41;;;;;;;3.33;1.10;;;;;;;;;;5151719;27;20237;-19
2022/06/02 00:16:10;;;;;;;1.00;0.70;;;;;;;;;;5152298;27;20716;-20
2022/06/02 00:18:40;;;;;;;1.45;1.00;;;;;;;;;;5152353;27;20239;-20
2022/06/02 00:21:10;;;;;;;1.67;1.00;;;;;;;;;;5152117;27;20249;-20
2022/06/02 00:23:42;;;;;;;1.85;0.90;;;;;;;;;;5152368;27;20226;-20
2022/06/02 00:26:16;;;;;;;1.63;0.88;;;;;;;;;;5151367;27;20239;-20
2022/06/02 00:28:45;;;;;;;1.40;0.98;;;;;;;;;;5144432;27;20234;-19
2022/06/02 00:31:13;;;;;;;2.88;1.38;;;;;;;;;;5152338;27;20223;-20
2022/06/02 00:33:42;;;;;;;1.25;1.10;;;;;;;;;;5140740;27;20235;-20
2022/06/02 00:36:11;;;;;;;1.23;1.10;;;;;;;;;;5149078;27;20230;-20
2022/06/02 00:38:39;;;;;;;1.67;1.08;;;;;;;;;;5151527;27;20810;-20
2022/06/02 00:41:11;;;;;;;2.00;0.90;;;;;;;;;;5152310;27;20226;-20
2022/06/02 00:43:48;;;;;;;2.78;0.93;;;;;;;;;;5152092;27;20379;-20
2022/06/02 00:46:17;;;;;;;1.50;0.90;;;;;;;;;;5150931;27;20759;-20
2022/06/02 00:48:49;;;;;;;2.15;1.17;;;;;;;;;;5151472;27;20245;-20
2022/06/02 00:51:18;;;;;;;1.92;1.10;;;;;;;;;;5152365;27;20227;-20
2022/06/02 00:57:30;;;;;;;1.85;1.30;;;;;;;;;;5137258;27;20250;-20
2022/06/02 00:59:25;;;;;;;1.10;1.00;;;;;;;;;;5152399;27;20235;-20
2022/06/02 01:01:53;;;;;;;0.93;0.82;;;;;;;;;;5151463;27;20601;-20
2022/06/02 01:04:20;;;;;;;1.58;1.20;;;;;;;;;;5148903;27;20241;-20
2022/06/02 01:06:52;;;;;;;0.95;0.80;;;;;;;;;;5150299;27;20231;-20
2022/06/02 01:09:37;;;;;;;1.58;1.10;;;;;;;;;;5149565;27;20963;-20
2022/06/02 01:12:08;;;;;;;1.92;1.08;;;;;;;;;;5100515;27;20219;-20
2022/06/02 01:14:40;;;;;;;2.55;1.00;;;;;;;;;;5150589;27;20241;-20
2022/06/02 01:17:10;;;;;;;1.17;1.08;;;;;;;;;;5151822;27;20802;-20
2022/06/02 01:19:55;;;;;;;1.10;0.88;;;;;;;;;;5152095;27;20729;-20
2022/06/02 01:22:34;;;;;;;3.08;1.00;;;;;;;;;;5152228;27;20219;-20
2022/06/02 01:25:23;;;;;;;1.42;0.98;;;;;;;;;;5150876;27;20234;-19
2022/06/02 01:28:05;;;;;;;2.30;0.98;;;;;;;;;;5144728;27;20249;-19
2022/06/02 01:30:53;;;;;;;0.80;0.80;;;;;;;;;;5128286;27;20233;-20
2022/06/02 01:33:25;;;;;;;2.72;0.95;;;;;;;;;;5146384;27;20223;-20
2022/06/02 01:35:54;;;;;;;1.40;1.08;;;;;;;;;;5150883;27;20231;-19
2022/06/02 01:38:22;;;;;;;2.42;1.00;;;;;;;;;;5151336;27;20230;-20
2022/06/02 01:40:52;;;;;;;1.35;0.95;;;;;;;;;;5151487;27;20223;-20
2022/06/02 01:43:22;;;;;;;5.82;1.00;;;;;;;;;;5151920;27;21263;-20
2022/06/02 01:45:58;;;;;;;1.52;0.93;;;;;;;;;;5151455;27;20306;-20
2022/06/02 01:48:29;;;;;;;0.77;0.77;;;;;;;;;;5151420;27;20238;-20
2022/06/02 01:50:59;;;;;;;1.05;0.93;;;;;;;;;;5154686;27;20230;-20
2022/06/02 01:53:31;;;;;;;1.33;0.98;;;;;;;;;;5154738;27;20227;-20
2022/06/02 01:56:03;;;;;;;3.13;1.08;;;;;;;;;;5154608;27;20231;-20
2022/06/02 01:58:35;;;;;;;2.03;1.00;;;;;;;;;;5150474;27;20233;-19
2022/06/02 02:01:03;;;;;;;2.25;1.30;;;;;;;;;;5142161;27;20997;-20
2022/06/02 02:03:32;;;;;;;5.53;1.10;;;;;;;;;;5155056;27;20227;-20
2022/06/02 02:06:02;;;;;;;1.80;1.35;;;;;;;;;;5155236;27;20238;-20
2022/06/02 02:08:36;;;;;;;1.13;0.82;;;;;;;;;;5154068;27;20243;-20
2022/06/02 02:11:08;;;;;;;2.10;1.20;;;;;;;;;;5148421;27;20231;-20
2022/06/02 02:13:38;;;;;;;2.22;1.42;;;;;;;;;;5147010;27;20223;-20
2022/06/02 02:16:10;;;;;;;0.93;0.90;;;;;;;;;;5154523;27;20242;-20
2022/06/02 02:18:45;;;;;;;4.00;1.08;;;;;;;;;;5154514;27;20231;-21
2022/06/02 02:21:15;;;;;;;1.08;0.90;;;;;;;;;;5152767;27;20719;-21
2022/06/02 02:23:44;;;;;;;1.30;0.98;;;;;;;;;;5154442;27;20651;-21
2022/06/02 02:26:13;;;;;;;2.25;1.08;;;;;;;;;;5153083;27;20833;-21
2022/06/02 02:28:44;;;;;;;2.03;1.23;;;;;;;;;;5154443;27;20237;-21
2022/06/02 02:31:16;;;;;;;2.70;1.10;;;;;;;;;;5153365;27;20249;-20
2022/06/02 02:33:48;;;;;;;2.03;1.17;;;;;;;;;;5154468;27;20278;-22
2022/06/02 02:36:17;;;;;;;3.80;0.95;;;;;;;;;;5153945;27;20234;-22
2022/06/02 02:38:49;;;;;;;1.10;1.00;;;;;;;;;;5154103;27;20317;-20
2022/06/02 02:41:17;;;;;;;2.20;0.90;;;;;;;;;;5153123;27;20226;-19
2022/06/02 02:43:45;;;;;;;3.33;1.10;;;;;;;;;;5154195;27;20238;-21
2022/06/02 02:46:13;;;;;;;2.58;1.20;;;;;;;;;;5144069;27;20237;-21
2022/06/02 02:48:43;;;;;;;2.58;0.93;;;;;;;;;;5147437;27;20689;-21
2022/06/02 02:51:13;;;;;;;1.13;1.02;;;;;;;;;;5145861;27;20231;-19
2022/06/02 02:53:45;;;;;;;3.45;0.90;;;;;;;;;;5152990;27;20276;-18
2022/06/02 02:56:14;;;;;;;1.63;1.20;;;;;;;;;;5154105;27;20237;-20
2022/06/02 02:58:42;;;;;;;1.00;1.00;;;;;;;;;;5139308;27;20234;-19
2022/06/02 03:01:11;;;;;;;0.95;0.82;;;;;;;;;;5142905;27;20234;-19
2022/06/02 03:03:41;;;;;;;0.90;0.80;;;;;;;;;;5149110;27;20700;-19
2022/06/02 03:06:13;;;;;;;1.65;1.13;;;;;;;;;;5154045;27;20222;-19
2022/06/02 03:08:43;;;;;;;2.15;1.00;;;;;;;;;;5151758;27;20604;-19
2022/06/02 03:11:16;;;;;;;1.85;0.93;;;;;;;;;;5141652;27;20976;-20
2022/06/02 03:13:45;;;;;;;0.88;0.85;;;;;;;;;;5153583;27;20218;-19
2022/06/02 03:16:12;;;;;;;0.90;0.80;;;;;;;;;;5151055;27;20231;-20
2022/06/02 03:18:46;;;;;;;1.00;0.90;;;;;;;;;;5139077;27;20231;-19
2022/06/02 03:21:18;;;;;;;1.08;0.95;;;;;;;;;;5140102;27;20862;-20
2022/06/02 03:23:50;;;;;;;1.40;1.00;;;;;;;;;;5153510;27;20230;-20
2022/06/02 03:26:19;;;;;;;2.80;0.90;;;;;;;;;;5135373;27;20677;-20
2022/06/02 03:28:48;;;;;;;1.33;0.80;;;;;;;;;;5132536;27;20230;-20
2022/06/02 03:31:25;;;;;;;0.82;0.75;;;;;;;;;;5142666;27;20318;-19
2022/06/02 03:34:01;;;;;;;0.98;0.88;;;;;;;;;;5146544;27;20230;-19
2022/06/02 03:36:53;;;;;;;1.38;0.77;;;;;;;;;;5149919;27;20532;-21
2022/06/02 03:39:23;;;;;;;0.90;0.90;;;;;;;;;;5121544;27;20234;-21
2022/06/02 03:41:57;;;;;;;1.00;0.90;;;;;;;;;;5140174;27;20230;-21
2022/06/02 03:44:28;;;;;;;1.00;0.82;;;;;;;;;;5153187;27;21129;-20
2022/06/02 03:47:00;;;;;;;1.27;0.80;;;;;;;;;;5152690;27;20716;-20
2022/06/02 03:49:48;;;;;;;0.85;0.77;;;;;;;;;;5152189;27;20269;-21
2022/06/02 03:52:19;;;;;;;1.80;1.13;;;;;;;;;;5143052;27;20635;-20
2022/06/02 03:54:54;;;;;;;1.42;0.93;;;;;;;;;;5149219;27;20985;-20
2022/06/02 03:57:27;;;;;;;0.80;0.80;;;;;;;;;;5153206;27;20222;-20
2022/06/02 03:59:57;;;;;;;1.45;0.90;;;;;;;;;;5151128;27;20736;-20
2022/06/02 04:02:27;;;;;;;1.10;1.00;;;;;;;;;;5132484;27;20230;-21
2022/06/02 04:04:55;;;;;;;1.10;0.98;;;;;;;;;;5146228;27;20232;-20
2022/06/02 04:07:28;;;;;;;1.50;0.90;;;;;;;;;;5140277;27;20226;-21
2022/06/02 04:09:59;;;;;;;1.48;0.70;;;;;;;;;;5143481;27;20856;-20
2022/06/02 04:15:34;;;;;;;1.30;0.70;;;;;;;;;;5122469;27;20232;-20
2022/06/02 04:18:03;;;;;;;0.85;0.85;;;;;;;;;;5140708;27;20721;-20
2022/06/02 04:20:50;;;;;;;0.80;0.80;;;;;;;;;;5135610;27;20771;-20
2022/06/02 04:23:27;;;;;;;1.00;0.77;;;;;;;;;;5147073;27;20218;-20
2022/06/02 04:25:57;;;;;;;1.00;0.75;;;;;;;;;;5138057;27;20818;-20
2022/06/02 04:28:27;;;;;;;1.20;0.77;;;;;;;;;;5152374;27;20237;-20
2022/06/02 04:30:56;;;;;;;1.02;0.90;;;;;;;;;;5150655;27;20227;-20
2022/06/02 04:33:26;;;;;;;1.75;0.75;;;;;;;;;;5139284;27;20777;-20
2022/06/02 04:35:57;;;;;;;1.02;0.90;;;;;;;;;;5135867;27;20223;-20
2022/06/02 04:38:26;;;;;;;0.90;0.70;;;;;;;;;;5139435;27;20219;-20
2022/06/02 04:40:57;;;;;;;0.77;0.77;;;;;;;;;;5138068;27;20231;-21
2022/06/02 04:43:32;;;;;;;1.08;0.80;;;;;;;;;;5142869;27;20238;-20
2022/06/02 04:46:02;;;;;;;2.60;1.05;;;;;;;;;;5144266;27;20276;-20
2022/06/02 04:48:31;;;;;;;3.17;0.90;;;;;;;;;;5137891;27;20230;-21
2022/06/02 04:51:01;;;;;;;1.13;1.00;;;;;;;;;;5152211;27;20235;-20
2022/06/02 04:53:30;;;;;;;1.20;0.90;;;;;;;;;;5150822;27;20235;-20
2022/06/02 04:56:01;;;;;;;2.38;0.70;;;;;;;;;;5152147;27;20227;-21
2022/06/02 04:58:30;;;;;;;0.82;0.70;;;;;;;;;;5132840;27;20223;-21
2022/06/02 05:01:00;;;;;;;0.68;0.65;;;;;;;;;;5138929;27;20282;-20
2022/06/02 05:03:30;;;;;;;0.95;0.80;;;;;;;;;;5148338;27;20227;-20
2022/06/02 05:06:00;;;;;;;1.55;0.90;;;;;;;;;;5146694;27;20222;-20
2022/06/02 05:08:40;;;;;;;3.75;0.90;;;;;;;;;;5151743;27;20222;-20
2022/06/02 05:11:13;;;;;;;1.60;0.98;;;;;;;;;;5151961;27;20226;-20
2022/06/02 05:13:44;;;;;;;0.73;0.73;;;;;;;;;;5147556;27;20274;-20
2022/06/02 05:16:13;;;;;;;0.88;0.82;;;;;;;;;;5140863;27;20253;-20
2022/06/02 05:18:49;;;;;;;1.60;0.90;;;;;;;;;;5148769;27;20227;-20
2022/06/02 05:21:24;;;;;;;1.17;0.98;;;;;;;;;;5141606;27;20241;-21
2022/06/02 05:23:56;;;;;;;1.05;0.95;;;;;;;;;;5138927;27;20226;-21
2022/06/02 05:26:44;;;;;;;1.20;1.10;;;;;;;;;;5154771;27;20703;-20
2022/06/02 05:29:20;;;;;;;1.33;0.90;;;;;;;;;;5142912;27;20693;-20
2022/06/02 05:31:52;;;;;;;0.80;0.80;;;;;;;;;;5135768;27;20278;-20
2022/06/02 05:34:37;;;;;;;1.08;0.93;;;;;;;;;;5150592;27;20235;-20
2022/06/02 05:37:07;;;;;;;1.38;0.70;;;;;;;;;;5154782;27;20229;-20
2022/06/02 05:39:39;;;;;;;2.67;0.90;;;;;;;;;;5151968;27;20223;-20
2022/06/02 05:42:11;;;;;;;1.20;0.90;;;;;;;;;;5144512;27;20228;-20
2022/06/02 05:44:52;;;;;;;1.40;0.95;;;;;;;;;;5136945;27;20232;-20
2022/06/02 05:47:27;;;;;;;1.20;1.10;;;;;;;;;;5146461;27;20242;-20
2022/06/02 05:49:56;;;;;;;2.78;1.00;;;;;;;;;;5154581;27;20233;-20
2022/06/02 05:52:28;;;;;;;2.78;1.00;;;;;;;;;;5154975;27;20624;-21
2022/06/02 05:55:04;;;;;;;1.30;1.20;;;;;;;;;;5154760;27;20231;-20
2022/06/02 05:57:34;;;;;;;2.08;1.67;;;;;;;;;;5154615;27;20232;-21
2022/06/02 06:00:25;;;;;;;2.08;1.33;;;;;;;;;;5136365;27;20258;-20
2022/06/02 06:02:59;;;;;;;2.20;1.35;;;;;;;;;;5145487;27;21109;-20
2022/06/02 06:05:27;;;;;;;2.28;1.50;;;;;;;;;;5146098;27;20227;-20
2022/06/02 06:08:01;;;;;;;3.70;1.33;;;;;;;;;;5146999;27;20226;-20
2022/06/02 06:10:30;;;;;;;2.40;1.40;;;;;;;;;;5150073;27;20242;-20
2022/06/02 06:13:00;;;;;;;2.33;1.42;;;;;;;;;;5149947;27;20230;-21
2022/06/02 06:15:31;;;;;;;1.55;1.25;;;;;;;;;;5147607;27;20231;-20
2022/06/02 06:18:02;;;;;;;2.10;1.50;;;;;;;;;;5145584;27;20226;-20
2022/06/02 06:20:36;;;;;;;5.50;1.58;;;;;;;;;;5147556;27;20991;-20
2022/06/02 06:23:07;;;;;;;4.97;1.80;;;;;;;;;;5146693;27;20769;-21
2022/06/02 06:25:37;;;;;;;2.33;1.70;;;;;;;;;;5148880;27;20226;-20
2022/06/02 06:28:07;;;;;;;3.85;1.63;;;;;;;;;;5145391;27;20227;-20
2022/06/02 06:30:36;;;;;;;4.60;1.48;;;;;;;;;;5151558;27;20245;-20
2022/06/02 06:33:09;;;;;;;1.35;1.25;;;;;;;;;;5148198;27;20226;-20
2022/06/02 06:35:39;;;;;;;1.88;1.13;;;;;;;;;;5146251;27;20222;-20
2022/06/02 06:38:09;;;;;;;2.70;1.38;;;;;;;;;;5147669;27;20308;-20
2022/06/02 06:40:55;;;;;;;6.40;1.35;;;;;;;;;;5146363;27;20356;-20
2022/06/02 06:43:26;;;;;;;6.53;1.80;;;;;;;;;;5147653;27;20233;-21
2022/06/02 06:45:56;;;;;;;3.50;1.33;;;;;;;;;;5143781;27;20253;-20
2022/06/02 06:48:30;;;;;;;6.35;1.60;;;;;;;;;;5150605;27;20242;-21
2022/06/02 06:51:01;;;;;;;10.55;1.48;;;;;;;;;;5146047;27;20253;-20
2022/06/02 06:53:31;;;;;;;11.70;1.55;;;;;;;;;;5146988;27;20237;-20
2022/06/02 06:56:01;;;;;;;6.68;2.03;;;;;;;;;;5141679;27;20224;-21
2022/06/02 06:58:32;;;;;;;9.02;1.58;;;;;;;;;;5150957;27;20858;-21
2022/06/02 07:01:04;;;;;;;9.35;1.73;;;;;;;;;;5145402;27;20249;-21
2022/06/02 07:03:36;;;;;;;4.15;1.58;;;;;;;;;;5144733;27;20701;-20
2022/06/02 07:06:05;;;;;;;6.22;1.58;;;;;;;;;;5148617;27;20223;-21
2022/06/02 07:08:34;;;;;;;2.80;1.60;;;;;;;;;;5152882;27;20267;-20
2022/06/02 07:11:04;;;;;;;5.43;1.92;;;;;;;;;;5142935;27;21387;-20
2022/06/02 07:13:31;;;;;;;5.95;2.17;;;;;;;;;;5153385;27;20959;-21
2022/06/02 07:16:00;;;;;;;3.08;1.58;;;;;;;;;;5153066;27;20227;-20
2022/06/02 07:18:31;;;;;;;8.23;2.03;;;;;;;;;;5152646;27;20237;-20
2022/06/02 07:21:02;;;;;;;5.28;2.13;;;;;;;;;;5150916;27;20334;-20
2022/06/02 07:23:35;;;;;;;5.63;2.08;;;;;;;;;;5144384;27;20236;-20
2022/06/02 07:26:07;;;;;;;7.90;2.60;;;;;;;;;;5142417;27;20442;-20
2022/06/02 07:28:37;;;;;;;7.82;3.03;;;;;;;;;;5142202;27;20418;-20
2022/06/02 07:31:09;;;;;;;12.38;2.33;;;;;;;;;;5137903;27;20231;-20
2022/06/02 07:33:44;;;;;;;8.27;2.50;;;;;;;;;;5140464;27;20419;-20
2022/06/02 07:36:16;;;;;;;7.47;2.20;;;;;;;;;;5144314;27;20425;-20
2022/06/02 07:38:49;;;;;;;4.70;2.85;;;;;;;;;;5140090;27;20234;-20
2022/06/02 07:41:24;;;;;;;4.75;2.33;;;;;;;;;;5139709;27;20223;-21
2022/06/02 07:44:02;;;;;;;4.82;2.60;;;;;;;;;;5140387;27;20231;-20
2022/06/02 07:46:46;;;;;;;5.15;2.35;;;;;;;;;;5144100;27;20230;-20
2022/06/02 07:49:25;;;;;;;3.65;2.10;;;;;;;;;;5143761;27;20311;-21
2022/06/02 07:51:55;;;;;;;6.13;2.03;;;;;;;;;;5136883;27;20246;-20
2022/06/02 07:54:29;;;;;;;6.65;1.52;;;;;;;;;;5141299;27;20235;-20
2022/06/02 07:57:00;;;;;;;4.93;1.92;;;;;;;;;;5138847;27;20235;-20
2022/06/02 07:59:32;;;;;;;4.03;2.08;;;;;;;;;;5141219;27;20235;-21
2022/06/02 08:02:06;;;;;;;2.97;2.08;;;;;;;;;;5143608;27;20219;-20
2022/06/02 08:04:38;;;;;;;3.63;2.28;;;;;;;;;;5146461;27;20238;-20
2022/06/02 08:07:07;;;;;;;5.80;2.10;;;;;;;;;;5144766;27;20254;-20
2022/06/02 08:09:40;;;;;;;6.93;2.28;;;;;;;;;;5135588;27;20235;-20
2022/06/02 08:12:10;;;;;;;4.53;2.00;;;;;;;;;;5139129;27;20289;-21
2022/06/02 08:14:41;;;;;;;2.10;1.90;;;;;;;;;;5141110;27;20231;-20
2022/06/02 08:17:12;;;;;;;3.80;1.80;;;;;;;;;;5137032;27;20416;-20
2022/06/02 08:19:41;;;;;;;2.42;2.03;;;;;;;;;;5141330;27;20230;-21
2022/06/02 08:22:11;;;;;;;2.40;1.70;;;;;;;;;;5134858;27;20264;-20
2022/06/02 08:24:49;;;;;;;2.72;1.52;;;;;;;;;;5140692;27;20231;-20
2022/06/02 08:27:21;;;;;;;4.82;1.70;;;;;;;;;;5138959;27;20610;-20
2022/06/02 08:29:53;;;;;;;2.33;1.52;;;;;;;;;;5130513;27;20258;-20
2022/06/02 08:32:25;;;;;;;3.13;1.60;;;;;;;;;;5138021;27;20327;-20
2022/06/02 08:34:54;;;;;;;3.42;1.60;;;;;;;;;;5141877;27;20387;-20
2022/06/02 08:37:25;;;;;;;2.35;1.60;;;;;;;;;;5135981;27;20242;-20
2022/06/02 08:40:19;;;;;;;2.90;1.48;;;;;;;;;;5129890;27;20250;-20
2022/06/02 08:42:55;;;;;;;2.88;1.42;;;;;;;;;;5137177;27;20235;-21
2022/06/02 08:45:36;;;;;;;4.10;1.50;;;;;;;;;;5137954;27;20230;-19
2022/06/02 08:48:24;;;;;;;6.85;1.67;;;;;;;;;;5128606;27;20878;-20
2022/06/02 08:51:09;;;;;;;1.40;1.30;;;;;;;;;;5130786;27;20246;-20
2022/06/02 08:54:01;;;;;;;2.25;1.30;;;;;;;;;;5127596;27;20235;-20
2022/06/02 08:56:43;;;;;;;3.10;1.17;;;;;;;;;;5137798;27;20227;-20
2022/06/02 08:59:19;;;;;;;1.38;1.20;;;;;;;;;;5132019;27;20235;-20
2022/06/02 09:01:53;;;;;;;2.03;1.60;;;;;;;;;;5140804;27;20258;-20
2022/06/02 09:04:31;;;;;;;3.95;1.73;;;;;;;;;;5138532;27;20620;-21
2022/06/02 09:07:12;;;;;;;2.03;1.33;;;;;;;;;;5145061;27;20226;-21
2022/06/02 09:10:08;;;;;;;1.42;1.17;;;;;;;;;;5147124;27;20270;-20
2022/06/02 09:12:57;;;;;;;2.25;1.38;;;;;;;;;;5139190;27;20237;-20
2022/06/02 09:15:47;;;;;;;1.50;1.05;;;;;;;;;;5137087;27;20761;-21
2022/06/02 09:18:16;;;;;;;1.88;1.13;;;;;;;;;;5136355;27;20365;-21
2022/06/02 09:20:50;;;;;;;2.08;1.40;;;;;;;;;;5144777;27;20222;-20
2022/06/02 09:23:31;;;;;;;1.88;1.25;;;;;;;;;;5143852;27;20233;-19
2022/06/02 09:26:10;;;;;;;2.03;1.20;;;;;;;;;;5136874;27;20731;-20
2022/06/02 09:28:52;;;;;;;2.42;1.30;;;;;;;;;;5149390;27;20234;-20
2022/06/02 09:31:38;;;;;;;5.38;1.45;;;;;;;;;;5142032;27;20238;-20
2022/06/02 09:34:46;;;;;;;1.60;1.40;;;;;;;;;;5143932;27;20230;-20
2022/06/02 09:37:26;;;;;;;2.13;0.98;;;;;;;;;;5148670;27;20234;-20
2022/06/02 09:39:56;;;;;;;1.73;1.30;;;;;;;;;;5147987;27;20233;-20
2022/06/02 09:42:30;;;;;;;3.50;1.40;;;;;;;;;;5137496;27;20239;-21
2022/06/02 09:45:01;;;;;;;1.73;1.40;;;;;;;;;;5139834;27;20731;-20
2022/06/02 09:47:45;;;;;;;1.88;1.10;;;;;;;;;;5147262;27;20250;-20
2022/06/02 09:50:20;;;;;;;2.58;1.00;;;;;;;;;;5134691;27;20255;-20
2022/06/02 09:52:54;;;;;;;2.03;1.00;;;;;;;;;;5137201;27;20243;-20
2022/06/02 09:55:28;;;;;;;3.20;1.10;;;;;;;;;;5141483;27;20241;-20
2022/06/02 09:58:05;;;;;;;1.92;1.05;;;;;;;;;;5138197;27;20253;-20
2022/06/02 10:00:37;;;;;;;2.55;1.45;;;;;;;;;;5137303;27;20226;-21
2022/06/02 10:03:08;;;;;;;2.45;1.58;;;;;;;;;;5138060;27;20227;-20
2022/06/02 10:05:43;;;;;;;1.50;1.23;;;;;;;;;;5131084;27;20773;-20
2022/06/02 10:08:13;;;;;;;1.70;1.35;;;;;;;;;;5137114;27;20227;-20
2022/06/02 10:10:46;;;;;;;2.15;0.88;;;;;;;;;;5130616;27;20243;-20
2022/06/02 10:13:32;;;;;;;2.17;1.40;;;;;;;;;;5135543;27;20238;-20
2022/06/02 10:16:04;;;;;;;2.42;1.48;;;;;;;;;;5143362;27;20234;-20
2022/06/02 10:18:40;;;;;;;2.75;1.17;;;;;;;;;;5135836;27;20658;-20
2022/06/02 10:21:10;;;;;;;1.38;0.90;;;;;;;;;;5141676;27;20231;-21
2022/06/02 10:23:45;;;;;;;1.63;1.00;;;;;;;;;;5138366;27;20728;-20
2022/06/02 10:26:16;;;;;;;1.55;1.23;;;;;;;;;;5140075;27;20229;-21
2022/06/02 10:28:58;;;;;;;0.98;0.88;;;;;;;;;;5140840;27;20223;-20
2022/06/02 10:31:55;;;;;;;2.28;1.10;;;;;;;;;;5134527;27;20243;-20
2022/06/02 10:34:41;;;;;;;1.40;1.00;;;;;;;;;;5140683;27;20334;-20
2022/06/02 10:37:13;;;;;;;2.30;1.00;;;;;;;;;;5143854;27;20238;-20
2022/06/02 10:39:48;;;;;;;1.10;1.00;;;;;;;;;;5131568;27;20235;-21
2022/06/02 10:42:23;;;;;;;1.77;1.33;;;;;;;;;;5135184;27;20701;-21
2022/06/02 10:45:05;;;;;;;1.20;1.10;;;;;;;;;;5146378;27;20237;-20
2022/06/02 10:47:52;;;;;;;1.55;1.10;;;;;;;;;;5109341;27;20238;-20
2022/06/02 10:50:23;;;;;;;1.25;1.10;;;;;;;;;;5145868;27;21018;-20
2022/06/02 10:53:23;;;;;;;1.92;1.10;;;;;;;;;;5142910;27;20243;-20
2022/06/02 10:56:18;;;;;;;1.63;1.23;;;;;;;;;;5066751;28;20237;-20
2022/06/02 10:58:58;;;;;;;0.88;0.82;;;;;;;;;;5039085;28;20380;-20
2022/06/02 11:01:46;;;;;;;1.45;1.13;;;;;;;;;;5119390;27;20253;-20
2022/06/02 11:04:41;;;;;;;1.25;0.95;;;;;;;;;;5144396;27;20231;-20
2022/06/02 11:07:20;;;;;;;1.27;0.85;;;;;;;;;;5138179;27;20701;-20
2022/06/02 11:10:05;;;;;;;1.17;1.08;;;;;;;;;;5131977;27;20232;-21
2022/06/02 11:12:40;;;;;;;1.10;1.00;;;;;;;;;;5134876;27;20238;-20
2022/06/02 11:15:23;;;;;;;1.33;0.95;;;;;;;;;;5135227;27;21938;-20
2022/06/02 11:17:59;;;;;;;1.13;0.98;;;;;;;;;;5138732;27;20224;-20
2022/06/02 11:20:35;;;;;;;1.42;0.80;;;;;;;;;;5135000;27;20233;-20
2022/06/02 11:23:11;;;;;;;2.17;1.10;;;;;;;;;;5137265;27;20242;-21
2022/06/02 11:26:03;;;;;;;1.92;0.90;;;;;;;;;;5136639;27;20242;-20
2022/06/02 11:28:38;;;;;;;3.60;1.33;;;;;;;;;;5130171;27;20223;-21
2022/06/02 11:31:21;;;;;;;1.80;0.90;;;;;;;;;;5134485;27;20231;-21
2022/06/02 11:33:57;;;;;;;1.77;1.10;;;;;;;;;;5136950;27;20239;-20
2022/06/02 11:36:54;;;;;;;1.27;0.82;;;;;;;;;;5137810;27;20826;-20
2022/06/02 11:39:32;;;;;;;1.10;1.00;;;;;;;;;;5085513;28;20237;-20
2022/06/02 11:42:02;;;;;;;0.90;0.90;;;;;;;;;;5133835;27;20305;-20
2022/06/02 11:44:33;;;;;;;1.23;0.98;;;;;;;;;;5130616;27;20239;-21
2022/06/02 11:47:15;;;;;;;1.65;1.15;;;;;;;;;;5134855;27;20237;-21
2022/06/02 11:49:57;;;;;;;1.48;0.90;;;;;;;;;;5140700;27;20963;-20
2022/06/02 11:52:32;;;;;;;1.80;0.90;;;;;;;;;;5131395;27;20625;-21
2022/06/02 11:55:13;;;;;;;0.98;0.75;;;;;;;;;;5126802;27;20239;-20
2022/06/02 11:57:50;;;;;;;3.13;1.05;;;;;;;;;;5137238;27;20238;-20
2022/06/02 12:00:35;;;;;;;1.48;1.05;;;;;;;;;;5146267;27;20615;-21
2022/06/02 12:03:12;;;;;;;0.93;0.80;;;;;;;;;;5137746;27;20345;-20
2022/06/02 12:06:13;;;;;;;2.10;1.10;;;;;;;;;;5143704;27;20980;-21
2022/06/02 12:09:01;;;;;;;1.27;0.82;;;;;;;;;;5084400;27;20724;-20
2022/06/02 12:11:39;;;;;;;0.82;0.80;;;;;;;;;;5137292;27;20231;-21
2022/06/02 12:14:27;;;;;;;1.30;0.90;;;;;;;;;;5143908;27;21021;-20
2022/06/02 12:17:03;;;;;;;2.10;1.00;;;;;;;;;;5131769;27;20254;-20
2022/06/02 12:19:53;;;;;;;1.45;1.00;;;;;;;;;;5137733;27;20229;-20
2022/06/02 12:22:40;;;;;;;0.80;0.80;;;;;;;;;;5140346;27;20235;-21
2022/06/02 12:25:13;;;;;;;2.30;0.80;;;;;;;;;;5145068;27;20230;-20
2022/06/02 12:27:51;;;;;;;0.98;0.70;;;;;;;;;;5142763;27;20235;-21
2022/06/02 12:30:20;;;;;;;1.25;0.93;;;;;;;;;;5138093;27;20241;-20
2022/06/02 12:32:55;;;;;;;1.52;0.85;;;;;;;;;;5130728;27;20227;-20
2022/06/02 12:35:31;;;;;;;1.65;1.10;;;;;;;;;;5145070;27;20246;-21
2022/06/02 12:38:17;;;;;;;1.50;0.70;;;;;;;;;;5140826;27;20233;-20
2022/06/02 12:40:50;;;;;;;0.90;0.80;;;;;;;;;;5139906;27;20236;-21
2022/06/02 12:43:22;;;;;;;1.80;0.85;;;;;;;;;;5133982;27;20724;-21
2022/06/02 12:45:52;;;;;;;2.65;0.70;;;;;;;;;;5139044;27;20747;-20
2022/06/02 12:48:31;;;;;;;1.27;0.85;;;;;;;;;;5145107;27;20684;-21
2022/06/02 12:51:00;;;;;;;1.58;0.90;;;;;;;;;;5130976;27;20238;-20
2022/06/02 12:53:55;;;;;;;1.08;0.70;;;;;;;;;;5135340;27;20273;-20
2022/06/02 12:56:31;;;;;;;1.55;0.88;;;;;;;;;;5128159;27;20698;-21
2022/06/02 12:59:13;;;;;;;1.63;0.80;;;;;;;;;;5136352;27;20231;-20
2022/06/02 13:01:44;;;;;;;1.98;0.80;;;;;;;;;;5136774;27;20231;-21
2022/06/02 13:04:36;;;;;;;1.33;0.80;;;;;;;;;;5137100;27;20234;-20
2022/06/02 13:07:21;;;;;;;1.23;0.73;;;;;;;;;;5136363;27;20231;-20
2022/06/02 13:10:03;;;;;;;0.93;0.75;;;;;;;;;;5133138;27;20235;-20
2022/06/02 13:12:49;;;;;;;1.00;0.90;;;;;;;;;;5134905;27;20286;-21
2022/06/02 13:15:30;;;;;;;1.30;0.82;;;;;;;;;;5143125;27;21056;-21
2022/06/02 13:18:06;;;;;;;2.83;0.80;;;;;;;;;;5136080;27;20235;-20
2022/06/02 13:20:52;;;;;;;2.45;0.90;;;;;;;;;;5138571;27;20706;-21
2022/06/02 13:23:24;;;;;;;1.00;0.80;;;;;;;;;;5146699;27;20868;-20
2022/06/02 13:26:16;;;;;;;0.98;0.75;;;;;;;;;;5136913;27;20240;-20
2022/06/02 13:28:52;;;;;;;2.60;0.95;;;;;;;;;;5130154;27;20240;-20
2022/06/02 13:31:30;;;;;;;2.47;0.98;;;;;;;;;;5138557;27;20227;-20
2022/06/02 13:34:20;;;;;;;0.93;0.90;;;;;;;;;;5129869;27;20226;-20
2022/06/02 13:36:53;;;;;;;1.67;1.02;;;;;;;;;;5112514;27;20226;-20
2022/06/02 13:39:41;;;;;;;1.67;1.08;;;;;;;;;;5132030;27;20234;-21
2022/06/02 13:42:16;;;;;;;2.30;1.10;;;;;;;;;;5142162;27;20223;-20
2022/06/02 13:44:49;;;;;;;2.50;0.98;;;;;;;;;;5137306;27;20253;-21
2022/06/02 13:47:27;;;;;;;1.00;0.80;;;;;;;;;;5138522;27;20273;-21
2022/06/02 13:50:03;;;;;;;1.33;1.00;;;;;;;;;;5142896;27;20314;-20
2022/06/02 13:52:36;;;;;;;1.58;0.90;;;;;;;;;;5139498;27;21137;-21
2022/06/02 13:58:24;;;;;;;1.42;1.00;;;;;;;;;;5082038;28;20228;-21
2022/06/02 14:00:55;;;;;;;1.45;0.73;;;;;;;;;;5125410;27;20231;-20
2022/06/02 14:03:37;;;;;;;2.13;0.80;;;;;;;;;;5137624;27;20234;-21
2022/06/02 14:06:08;;;;;;;1.05;0.70;;;;;;;;;;5140049;27;20226;-22
2022/06/02 14:08:39;;;;;;;3.83;0.90;;;;;;;;;;5138907;27;20269;-21
2022/06/02 14:11:10;;;;;;;0.80;0.80;;;;;;;;;;5145068;27;20693;-20
2022/06/02 14:13:44;;;;;;;3.08;0.80;;;;;;;;;;5143346;27;20227;-21
2022/06/02 14:16:14;;;;;;;2.15;0.93;;;;;;;;;;5148322;27;20246;-20
2022/06/02 14:18:55;;;;;;;0.82;0.70;;;;;;;;;;5148422;27;20292;-21
2022/06/02 14:21:26;;;;;;;0.98;0.70;;;;;;;;;;5133259;27;20231;-20
2022/06/02 14:23:58;;;;;;;0.95;0.70;;;;;;;;;;5140519;27;20325;-20
2022/06/02 14:26:27;;;;;;;1.42;0.80;;;;;;;;;;5138278;27;20239;-20
2022/06/02 14:28:59;;;;;;;1.00;0.80;;;;;;;;;;5135943;27;20237;-20
2022/06/02 14:31:29;;;;;;;0.98;0.80;;;;;;;;;;5131419;27;20234;-21
2022/06/02 14:34:00;;;;;;;2.90;0.90;;;;;;;;;;5135513;27;20230;-20
2022/06/02 14:36:29;;;;;;;1.40;1.05;;;;;;;;;;5147155;27;20231;-20
2022/06/02 14:39:03;;;;;;;1.23;0.80;;;;;;;;;;5132518;27;20309;-20
2022/06/02 14:41:33;;;;;;;1.10;0.85;;;;;;;;;;5149368;27;20231;-21
2022/06/02 14:44:08;;;;;;;0.68;0.65;;;;;;;;;;5132400;27;20211;-20
2022/06/02 14:46:37;;;;;;;1.45;0.70;;;;;;;;;;5140797;27;20267;-19
2022/06/02 14:49:16;;;;;;;0.95;0.60;;;;;;;;;;5107066;27;1056502;-21
2022/06/02 14:51:45;;;;;;;0.88;0.70;;;;;;;;;;5129645;27;20235;-20
2022/06/02 14:54:19;;;;;;;1.75;0.98;;;;;;;;;;5138768;27;20222;-21
2022/06/02 14:56:51;;;;;;;1.48;0.90;;;;;;;;;;5136445;27;20703;-20
2022/06/02 14:59:25;;;;;;;0.70;0.70;;;;;;;;;;5144778;27;20326;-20
2022/06/02 15:01:56;;;;;;;1.23;1.00;;;;;;;;;;5131442;27;20223;-20
2022/06/02 15:04:29;;;;;;;0.88;0.55;;;;;;;;;;5136258;27;20264;-21
2022/06/02 15:07:03;;;;;;;0.70;0.60;;;;;;;;;;5141926;27;20231;-20
2022/06/02 15:09:42;;;;;;;0.90;0.60;;;;;;;;;;5133369;27;20231;-21
2022/06/02 15:12:19;;;;;;;0.77;0.68;;;;;;;;;;5133417;27;20346;-21
2022/06/02 15:15:03;;;;;;;2.53;0.70;;;;;;;;;;5138295;27;20635;-21
2022/06/02 15:17:45;;;;;;;1.00;0.60;;;;;;;;;;5134810;27;20238;-20
2022/06/02 15:20:24;;;;;;;1.70;0.90;;;;;;;;;;5135381;27;20230;-21
2022/06/02 15:23:23;;;;;;;0.80;0.68;;;;;;;;;;5137143;27;20228;-21
2022/06/02 15:25:53;;;;;;;2.08;0.85;;;;;;;;;;5135037;27;20309;-20
2022/06/02 15:28:22;;;;;;;1.10;0.70;;;;;;;;;;5129626;27;20227;-21
2022/06/02 15:31:03;;;;;;;1.85;0.82;;;;;;;;;;5144022;27;20981;-20
2022/06/02 15:33:44;;;;;;;0.95;0.80;;;;;;;;;;5138256;27;20724;-20
2022/06/02 15:36:29;;;;;;;3.10;0.63;;;;;;;;;;5144466;27;20243;-20
2022/06/02 15:39:22;;;;;;;1.17;0.70;;;;;;;;;;5135129;27;20239;-21